sensor_id;sensor_type;location;lat;lon;timestamp;P1;durP1;ratioP1;P2;durP2;ratioP2
38972;SDS011;25333;50.762;4.470;2023-05-07T00:02:04;5.45;;;2.70;;
38972;SDS011;25333;50.762;4.470;2023-05-07T00:04:30;5.18;;;2.70;;
38972;SDS011;25333;50.762;4.470;2023-05-07T00:07:01;5.40;;;2.83;;
38972;SDS011;25333;50.762;4.470;2023-05-07T00:09:27;4.85;;;2.33;;
38972;SDS011;25333;50.762;4.470;2023-05-07T00:11:53;4.75;;;2.40;;
38972;SDS011;25333;50.762;4.470;2023-05-07T00:14:19;4.35;;;2.47;;
38972;SDS011;25333;50.762;4.470;2023-05-07T00:16:45;4.85;;;2.47;;
38972;SDS011;25333;50.762;4.470;2023-05-07T00:19:11;6.72;;;3.20;;
38972;SDS011;25333;50.762;4.470;2023-05-07T00:21:37;6.18;;;3.08;;
38972;SDS011;25333;50.762;4.470;2023-05-07T00:24:03;7.23;;;2.90;;
38972;SDS011;25333;50.762;4.470;2023-05-07T00:26:28;4.30;;;2.65;;
38972;SDS011;25333;50.762;4.470;2023-05-07T00:28:54;5.33;;;3.07;;
38972;SDS011;25333;50.762;4.470;2023-05-07T00:31:20;6.93;;;3.22;;
38972;SDS011;25333;50.762;4.470;2023-05-07T00:33:45;5.28;;;2.47;;
38972;SDS011;25333;50.762;4.470;2023-05-07T00:36:11;6.27;;;2.60;;
38972;SDS011;25333;50.762;4.470;2023-05-07T00:38:37;8.05;;;3.08;;
38972;SDS011;25333;50.762;4.470;2023-05-07T00:41:03;4.63;;;3.35;;
38972;SDS011;25333;50.762;4.470;2023-05-07T00:43:28;6.00;;;4.40;;
38972;SDS011;25333;50.762;4.470;2023-05-07T00:45:54;4.47;;;2.97;;
38972;SDS011;25333;50.762;4.470;2023-05-07T00:48:20;7.57;;;3.80;;
38972;SDS011;25333;50.762;4.470;2023-05-07T00:50:46;5.88;;;3.20;;
38972;SDS011;25333;50.762;4.470;2023-05-07T00:53:13;5.30;;;3.25;;
38972;SDS011;25333;50.762;4.470;2023-05-07T00:55:39;6.22;;;2.78;;
38972;SDS011;25333;50.762;4.470;2023-05-07T00:58:05;8.10;;;3.93;;
38972;SDS011;25333;50.762;4.470;2023-05-07T01:00:31;4.97;;;3.22;;
38972;SDS011;25333;50.762;4.470;2023-05-07T01:02:57;7.05;;;4.25;;
38972;SDS011;25333;50.762;4.470;2023-05-07T01:05:23;5.50;;;3.17;;
38972;SDS011;25333;50.762;4.470;2023-05-07T01:07:50;4.60;;;3.70;;
38972;SDS011;25333;50.762;4.470;2023-05-07T01:10:18;7.97;;;3.83;;
38972;SDS011;25333;50.762;4.470;2023-05-07T01:12:44;5.85;;;3.13;;
38972;SDS011;25333;50.762;4.470;2023-05-07T01:15:12;4.63;;;2.90;;
38972;SDS011;25333;50.762;4.470;2023-05-07T01:17:39;6.47;;;3.65;;
38972;SDS011;25333;50.762;4.470;2023-05-07T01:20:06;6.05;;;3.58;;
38972;SDS011;25333;50.762;4.470;2023-05-07T01:22:33;4.65;;;3.53;;
38972;SDS011;25333;50.762;4.470;2023-05-07T01:25:01;7.35;;;3.63;;
38972;SDS011;25333;50.762;4.470;2023-05-07T01:27:28;6.28;;;3.30;;
38972;SDS011;25333;50.762;4.470;2023-05-07T01:29:53;7.18;;;3.53;;
38972;SDS011;25333;50.762;4.470;2023-05-07T01:32:21;5.97;;;3.28;;
38972;SDS011;25333;50.762;4.470;2023-05-07T01:34:56;6.22;;;3.35;;
38972;SDS011;25333;50.762;4.470;2023-05-07T01:37:23;4.97;;;2.70;;
38972;SDS011;25333;50.762;4.470;2023-05-07T01:39:50;5.45;;;2.50;;
38972;SDS011;25333;50.762;4.470;2023-05-07T01:42:17;4.05;;;2.63;;
38972;SDS011;25333;50.762;4.470;2023-05-07T01:44:43;5.00;;;2.97;;
38972;SDS011;25333;50.762;4.470;2023-05-07T01:47:09;4.00;;;2.50;;
38972;SDS011;25333;50.762;4.470;2023-05-07T01:49:36;3.65;;;2.10;;
38972;SDS011;25333;50.762;4.470;2023-05-07T01:52:02;5.32;;;3.15;;
38972;SDS011;25333;50.762;4.470;2023-05-07T01:54:28;4.50;;;2.90;;
38972;SDS011;25333;50.762;4.470;2023-05-07T01:56:55;4.25;;;2.55;;
38972;SDS011;25333;50.762;4.470;2023-05-07T01:59:21;8.30;;;3.72;;
38972;SDS011;25333;50.762;4.470;2023-05-07T02:01:47;4.23;;;3.10;;
38972;SDS011;25333;50.762;4.470;2023-05-07T02:04:12;3.87;;;2.30;;
38972;SDS011;25333;50.762;4.470;2023-05-07T02:06:38;3.83;;;2.40;;
38972;SDS011;25333;50.762;4.470;2023-05-07T02:09:04;4.77;;;2.77;;
38972;SDS011;25333;50.762;4.470;2023-05-07T02:11:29;4.15;;;2.53;;
38972;SDS011;25333;50.762;4.470;2023-05-07T02:13:55;6.18;;;2.92;;
38972;SDS011;25333;50.762;4.470;2023-05-07T02:16:21;4.00;;;2.70;;
38972;SDS011;25333;50.762;4.470;2023-05-07T02:18:48;7.10;;;2.92;;
38972;SDS011;25333;50.762;4.470;2023-05-07T02:21:13;4.20;;;2.53;;
38972;SDS011;25333;50.762;4.470;2023-05-07T02:23:39;4.97;;;2.80;;
38972;SDS011;25333;50.762;4.470;2023-05-07T02:26:05;4.85;;;2.90;;
38972;SDS011;25333;50.762;4.470;2023-05-07T02:28:30;6.70;;;3.40;;
38972;SDS011;25333;50.762;4.470;2023-05-07T02:30:56;5.75;;;3.50;;
38972;SDS011;25333;50.762;4.470;2023-05-07T02:33:23;6.60;;;2.95;;
38972;SDS011;25333;50.762;4.470;2023-05-07T02:35:49;5.60;;;3.38;;
38972;SDS011;25333;50.762;4.470;2023-05-07T02:38:16;4.25;;;2.85;;
38972;SDS011;25333;50.762;4.470;2023-05-07T02:40:42;5.53;;;3.30;;
38972;SDS011;25333;50.762;4.470;2023-05-07T02:43:08;3.80;;;2.38;;
38972;SDS011;25333;50.762;4.470;2023-05-07T02:45:35;4.85;;;2.92;;
38972;SDS011;25333;50.762;4.470;2023-05-07T02:48:02;6.15;;;3.40;;
38972;SDS011;25333;50.762;4.470;2023-05-07T02:50:28;4.78;;;3.28;;
38972;SDS011;25333;50.762;4.470;2023-05-07T02:55:27;5.45;;;3.75;;
38972;SDS011;25333;50.762;4.470;2023-05-07T02:57:54;6.32;;;2.95;;
38972;SDS011;25333;50.762;4.470;2023-05-07T03:00:20;5.18;;;2.80;;
38972;SDS011;25333;50.762;4.470;2023-05-07T03:02:47;9.07;;;3.70;;
38972;SDS011;25333;50.762;4.470;2023-05-07T03:05:12;4.13;;;2.97;;
38972;SDS011;25333;50.762;4.470;2023-05-07T03:07:39;4.72;;;3.15;;
38972;SDS011;25333;50.762;4.470;2023-05-07T03:10:06;4.87;;;2.87;;
38972;SDS011;25333;50.762;4.470;2023-05-07T03:12:31;5.47;;;3.47;;
38972;SDS011;25333;50.762;4.470;2023-05-07T03:14:58;5.00;;;3.70;;
38972;SDS011;25333;50.762;4.470;2023-05-07T03:17:24;5.57;;;3.20;;
38972;SDS011;25333;50.762;4.470;2023-05-07T03:19:50;4.67;;;2.93;;
38972;SDS011;25333;50.762;4.470;2023-05-07T03:22:15;5.28;;;3.25;;
38972;SDS011;25333;50.762;4.470;2023-05-07T03:24:41;5.80;;;3.13;;
38972;SDS011;25333;50.762;4.470;2023-05-07T03:27:07;6.70;;;2.73;;
38972;SDS011;25333;50.762;4.470;2023-05-07T03:29:32;4.50;;;2.85;;
38972;SDS011;25333;50.762;4.470;2023-05-07T03:31:58;5.05;;;3.00;;
38972;SDS011;25333;50.762;4.470;2023-05-07T03:34:24;4.90;;;3.07;;
38972;SDS011;25333;50.762;4.470;2023-05-07T03:36:49;3.40;;;2.47;;
38972;SDS011;25333;50.762;4.470;2023-05-07T03:39:15;4.55;;;2.75;;
38972;SDS011;25333;50.762;4.470;2023-05-07T03:41:41;4.87;;;2.73;;
38972;SDS011;25333;50.762;4.470;2023-05-07T03:44:08;4.20;;;2.40;;
38972;SDS011;25333;50.762;4.470;2023-05-07T03:46:34;4.93;;;2.80;;
38972;SDS011;25333;50.762;4.470;2023-05-07T03:48:59;3.22;;;2.03;;
38972;SDS011;25333;50.762;4.470;2023-05-07T03:51:25;7.10;;;2.70;;
38972;SDS011;25333;50.762;4.470;2023-05-07T03:53:51;3.97;;;2.72;;
38972;SDS011;25333;50.762;4.470;2023-05-07T03:56:19;4.32;;;2.78;;
38972;SDS011;25333;50.762;4.470;2023-05-07T03:58:47;5.97;;;2.60;;
38972;SDS011;25333;50.762;4.470;2023-05-07T04:01:12;3.92;;;2.33;;
38972;SDS011;25333;50.762;4.470;2023-05-07T04:03:38;5.40;;;3.27;;
38972;SDS011;25333;50.762;4.470;2023-05-07T04:06:05;3.75;;;2.92;;
38972;SDS011;25333;50.762;4.470;2023-05-07T04:08:31;6.60;;;3.07;;
38972;SDS011;25333;50.762;4.470;2023-05-07T04:10:57;4.10;;;2.17;;
38972;SDS011;25333;50.762;4.470;2023-05-07T04:13:23;4.32;;;2.45;;
38972;SDS011;25333;50.762;4.470;2023-05-07T04:15:50;3.92;;;2.47;;
38972;SDS011;25333;50.762;4.470;2023-05-07T04:18:17;5.25;;;2.95;;
38972;SDS011;25333;50.762;4.470;2023-05-07T04:20:43;5.47;;;2.50;;
38972;SDS011;25333;50.762;4.470;2023-05-07T04:23:09;5.05;;;2.65;;
38972;SDS011;25333;50.762;4.470;2023-05-07T04:25:35;4.85;;;3.03;;
38972;SDS011;25333;50.762;4.470;2023-05-07T04:28:01;4.37;;;2.77;;
38972;SDS011;25333;50.762;4.470;2023-05-07T04:30:26;4.63;;;2.53;;
38972;SDS011;25333;50.762;4.470;2023-05-07T04:32:52;5.20;;;2.22;;
38972;SDS011;25333;50.762;4.470;2023-05-07T04:35:18;4.57;;;2.63;;
38972;SDS011;25333;50.762;4.470;2023-05-07T04:37:44;4.55;;;2.83;;
38972;SDS011;25333;50.762;4.470;2023-05-07T04:40:10;5.57;;;2.63;;
38972;SDS011;25333;50.762;4.470;2023-05-07T04:42:35;6.07;;;3.00;;
38972;SDS011;25333;50.762;4.470;2023-05-07T04:45:02;5.20;;;2.43;;
38972;SDS011;25333;50.762;4.470;2023-05-07T04:47:28;4.25;;;2.60;;
38972;SDS011;25333;50.762;4.470;2023-05-07T04:49:57;3.35;;;2.30;;
38972;SDS011;25333;50.762;4.470;2023-05-07T04:52:24;5.30;;;2.50;;
38972;SDS011;25333;50.762;4.470;2023-05-07T04:54:50;4.68;;;2.55;;
38972;SDS011;25333;50.762;4.470;2023-05-07T04:57:18;3.78;;;2.65;;
38972;SDS011;25333;50.762;4.470;2023-05-07T04:59:48;4.28;;;2.80;;
38972;SDS011;25333;50.762;4.470;2023-05-07T05:02:14;4.47;;;2.20;;
38972;SDS011;25333;50.762;4.470;2023-05-07T05:04:48;6.43;;;2.70;;
38972;SDS011;25333;50.762;4.470;2023-05-07T05:07:14;4.25;;;2.83;;
38972;SDS011;25333;50.762;4.470;2023-05-07T05:09:40;5.78;;;2.50;;
38972;SDS011;25333;50.762;4.470;2023-05-07T05:12:07;4.30;;;2.33;;
38972;SDS011;25333;50.762;4.470;2023-05-07T05:14:40;5.22;;;2.90;;
38972;SDS011;25333;50.762;4.470;2023-05-07T05:17:06;6.50;;;2.80;;
38972;SDS011;25333;50.762;4.470;2023-05-07T05:19:32;5.97;;;2.63;;
38972;SDS011;25333;50.762;4.470;2023-05-07T05:21:58;4.37;;;2.80;;
38972;SDS011;25333;50.762;4.470;2023-05-07T05:24:26;4.85;;;2.60;;
38972;SDS011;25333;50.762;4.470;2023-05-07T05:26:53;4.50;;;2.40;;
38972;SDS011;25333;50.762;4.470;2023-05-07T05:29:18;5.10;;;2.75;;
38972;SDS011;25333;50.762;4.470;2023-05-07T05:31:45;3.65;;;2.50;;
38972;SDS011;25333;50.762;4.470;2023-05-07T05:34:11;3.70;;;2.57;;
38972;SDS011;25333;50.762;4.470;2023-05-07T05:36:37;4.63;;;2.50;;
38972;SDS011;25333;50.762;4.470;2023-05-07T05:39:10;4.53;;;2.60;;
38972;SDS011;25333;50.762;4.470;2023-05-07T05:41:36;3.53;;;2.38;;
38972;SDS011;25333;50.762;4.470;2023-05-07T05:44:01;5.77;;;2.80;;
38972;SDS011;25333;50.762;4.470;2023-05-07T05:46:27;5.90;;;3.35;;
38972;SDS011;25333;50.762;4.470;2023-05-07T05:48:53;6.70;;;4.13;;
38972;SDS011;25333;50.762;4.470;2023-05-07T05:51:20;5.83;;;3.67;;
38972;SDS011;25333;50.762;4.470;2023-05-07T05:53:46;5.28;;;3.75;;
38972;SDS011;25333;50.762;4.470;2023-05-07T05:56:22;4.85;;;3.58;;
38972;SDS011;25333;50.762;4.470;2023-05-07T05:58:48;8.50;;;4.70;;
38972;SDS011;25333;50.762;4.470;2023-05-07T06:01:15;6.15;;;3.95;;
38972;SDS011;25333;50.762;4.470;2023-05-07T06:03:44;8.30;;;3.75;;
38972;SDS011;25333;50.762;4.470;2023-05-07T06:06:09;4.95;;;3.33;;
38972;SDS011;25333;50.762;4.470;2023-05-07T06:08:35;7.23;;;3.70;;
38972;SDS011;25333;50.762;4.470;2023-05-07T06:11:01;8.15;;;3.85;;
38972;SDS011;25333;50.762;4.470;2023-05-07T06:13:27;5.82;;;3.13;;
38972;SDS011;25333;50.762;4.470;2023-05-07T06:15:53;5.60;;;3.17;;
38972;SDS011;25333;50.762;4.470;2023-05-07T06:18:19;7.70;;;3.10;;
38972;SDS011;25333;50.762;4.470;2023-05-07T06:20:44;4.63;;;3.00;;
38972;SDS011;25333;50.762;4.470;2023-05-07T06:23:10;3.63;;;2.67;;
38972;SDS011;25333;50.762;4.470;2023-05-07T06:25:36;5.10;;;2.60;;
38972;SDS011;25333;50.762;4.470;2023-05-07T06:28:02;5.20;;;2.60;;
38972;SDS011;25333;50.762;4.470;2023-05-07T06:30:27;6.60;;;2.50;;
38972;SDS011;25333;50.762;4.470;2023-05-07T06:32:53;6.40;;;2.63;;
38972;SDS011;25333;50.762;4.470;2023-05-07T06:35:19;5.85;;;2.30;;
38972;SDS011;25333;50.762;4.470;2023-05-07T06:37:44;4.75;;;2.08;;
38972;SDS011;25333;50.762;4.470;2023-05-07T06:40:10;5.63;;;2.40;;
38972;SDS011;25333;50.762;4.470;2023-05-07T06:42:36;4.68;;;1.63;;
38972;SDS011;25333;50.762;4.470;2023-05-07T06:45:02;5.25;;;2.33;;
38972;SDS011;25333;50.762;4.470;2023-05-07T06:47:29;6.17;;;2.53;;
38972;SDS011;25333;50.762;4.470;2023-05-07T06:49:54;6.57;;;2.03;;
38972;SDS011;25333;50.762;4.470;2023-05-07T06:52:20;5.13;;;2.13;;
38972;SDS011;25333;50.762;4.470;2023-05-07T06:54:46;4.10;;;2.35;;
38972;SDS011;25333;50.762;4.470;2023-05-07T06:57:11;4.50;;;2.30;;
38972;SDS011;25333;50.762;4.470;2023-05-07T06:59:37;3.80;;;1.60;;
38972;SDS011;25333;50.762;4.470;2023-05-07T07:02:06;6.22;;;2.33;;
38972;SDS011;25333;50.762;4.470;2023-05-07T07:04:33;4.07;;;1.98;;
38972;SDS011;25333;50.762;4.470;2023-05-07T07:06:59;6.78;;;2.03;;
38972;SDS011;25333;50.762;4.470;2023-05-07T07:09:25;5.10;;;1.77;;
38972;SDS011;25333;50.762;4.470;2023-05-07T07:11:50;4.53;;;1.98;;
38972;SDS011;25333;50.762;4.470;2023-05-07T07:14:16;5.05;;;2.22;;
38972;SDS011;25333;50.762;4.470;2023-05-07T07:16:42;4.80;;;1.97;;
38972;SDS011;25333;50.762;4.470;2023-05-07T07:19:08;4.70;;;2.33;;
38972;SDS011;25333;50.762;4.470;2023-05-07T07:21:34;3.95;;;2.30;;
38972;SDS011;25333;50.762;4.470;2023-05-07T07:24:01;3.80;;;2.40;;
38972;SDS011;25333;50.762;4.470;2023-05-07T07:26:27;5.63;;;2.80;;
38972;SDS011;25333;50.762;4.470;2023-05-07T07:28:52;3.90;;;2.22;;
38972;SDS011;25333;50.762;4.470;2023-05-07T07:31:19;5.97;;;2.72;;
38972;SDS011;25333;50.762;4.470;2023-05-07T07:33:44;7.90;;;3.45;;
38972;SDS011;25333;50.762;4.470;2023-05-07T07:36:10;7.63;;;2.60;;
38972;SDS011;25333;50.762;4.470;2023-05-07T07:38:36;4.40;;;2.77;;
38972;SDS011;25333;50.762;4.470;2023-05-07T07:41:01;6.38;;;2.88;;
38972;SDS011;25333;50.762;4.470;2023-05-07T07:43:27;5.90;;;2.42;;
38972;SDS011;25333;50.762;4.470;2023-05-07T07:45:53;5.63;;;2.43;;
38972;SDS011;25333;50.762;4.470;2023-05-07T07:48:19;8.55;;;2.80;;
38972;SDS011;25333;50.762;4.470;2023-05-07T07:50:44;4.68;;;2.45;;
38972;SDS011;25333;50.762;4.470;2023-05-07T07:53:10;5.53;;;2.93;;
38972;SDS011;25333;50.762;4.470;2023-05-07T07:55:39;6.63;;;3.13;;
38972;SDS011;25333;50.762;4.470;2023-05-07T07:58:05;6.07;;;3.43;;
38972;SDS011;25333;50.762;4.470;2023-05-07T08:00:30;9.18;;;3.13;;
38972;SDS011;25333;50.762;4.470;2023-05-07T08:02:56;5.32;;;2.22;;
38972;SDS011;25333;50.762;4.470;2023-05-07T08:05:22;5.03;;;2.80;;
38972;SDS011;25333;50.762;4.470;2023-05-07T08:07:48;4.72;;;2.80;;
38972;SDS011;25333;50.762;4.470;2023-05-07T08:10:18;4.70;;;2.72;;
38972;SDS011;25333;50.762;4.470;2023-05-07T08:12:49;4.93;;;2.63;;
38972;SDS011;25333;50.762;4.470;2023-05-07T08:15:15;5.90;;;3.20;;
38972;SDS011;25333;50.762;4.470;2023-05-07T08:17:41;7.15;;;3.92;;
38972;SDS011;25333;50.762;4.470;2023-05-07T08:20:08;10.23;;;3.63;;
38972;SDS011;25333;50.762;4.470;2023-05-07T08:22:34;5.68;;;3.38;;
38972;SDS011;25333;50.762;4.470;2023-05-07T08:25:00;5.70;;;3.08;;
38972;SDS011;25333;50.762;4.470;2023-05-07T08:27:26;4.60;;;2.55;;
38972;SDS011;25333;50.762;4.470;2023-05-07T08:29:52;4.67;;;2.87;;
38972;SDS011;25333;50.762;4.470;2023-05-07T08:32:19;4.72;;;2.72;;
38972;SDS011;25333;50.762;4.470;2023-05-07T08:34:45;4.97;;;3.20;;
38972;SDS011;25333;50.762;4.470;2023-05-07T08:37:11;7.15;;;3.03;;
38972;SDS011;25333;50.762;4.470;2023-05-07T08:39:36;6.73;;;3.07;;
38972;SDS011;25333;50.762;4.470;2023-05-07T08:42:03;6.73;;;2.97;;
38972;SDS011;25333;50.762;4.470;2023-05-07T08:44:32;7.50;;;3.17;;
38972;SDS011;25333;50.762;4.470;2023-05-07T08:47:00;5.22;;;2.90;;
38972;SDS011;25333;50.762;4.470;2023-05-07T08:49:27;4.25;;;2.15;;
38972;SDS011;25333;50.762;4.470;2023-05-07T08:51:54;5.15;;;2.58;;
38972;SDS011;25333;50.762;4.470;2023-05-07T08:54:20;4.53;;;2.60;;
38972;SDS011;25333;50.762;4.470;2023-05-07T08:56:47;4.60;;;2.90;;
38972;SDS011;25333;50.762;4.470;2023-05-07T08:59:13;4.55;;;2.35;;
38972;SDS011;25333;50.762;4.470;2023-05-07T09:01:39;3.58;;;2.10;;
38972;SDS011;25333;50.762;4.470;2023-05-07T09:04:05;6.57;;;3.10;;
38972;SDS011;25333;50.762;4.470;2023-05-07T09:06:32;3.22;;;1.85;;
38972;SDS011;25333;50.762;4.470;2023-05-07T09:08:58;3.10;;;2.00;;
38972;SDS011;25333;50.762;4.470;2023-05-07T09:11:26;4.85;;;2.33;;
38972;SDS011;25333;50.762;4.470;2023-05-07T09:13:55;4.93;;;1.93;;
38972;SDS011;25333;50.762;4.470;2023-05-07T09:16:23;4.77;;;1.60;;
38972;SDS011;25333;50.762;4.470;2023-05-07T09:18:53;4.47;;;2.20;;
38972;SDS011;25333;50.762;4.470;2023-05-07T09:21:19;5.75;;;2.30;;
38972;SDS011;25333;50.762;4.470;2023-05-07T09:23:48;3.95;;;2.63;;
38972;SDS011;25333;50.762;4.470;2023-05-07T09:26:16;3.33;;;1.75;;
38972;SDS011;25333;50.762;4.470;2023-05-07T09:28:41;5.17;;;1.90;;
38972;SDS011;25333;50.762;4.470;2023-05-07T09:31:08;3.53;;;2.03;;
38972;SDS011;25333;50.762;4.470;2023-05-07T09:33:34;5.10;;;2.13;;
38972;SDS011;25333;50.762;4.470;2023-05-07T09:36:07;3.97;;;1.88;;
38972;SDS011;25333;50.762;4.470;2023-05-07T09:38:34;5.50;;;2.40;;
38972;SDS011;25333;50.762;4.470;2023-05-07T09:43:36;2.55;;;1.90;;
38972;SDS011;25333;50.762;4.470;2023-05-07T09:46:07;6.00;;;2.25;;
38972;SDS011;25333;50.762;4.470;2023-05-07T09:48:36;2.63;;;1.48;;
38972;SDS011;25333;50.762;4.470;2023-05-07T09:51:04;4.70;;;2.23;;
38972;SDS011;25333;50.762;4.470;2023-05-07T09:53:36;3.55;;;1.80;;
38972;SDS011;25333;50.762;4.470;2023-05-07T09:56:04;5.95;;;2.05;;
38972;SDS011;25333;50.762;4.470;2023-05-07T09:58:30;3.03;;;1.50;;
38972;SDS011;25333;50.762;4.470;2023-05-07T10:00:58;3.30;;;1.50;;
38972;SDS011;25333;50.762;4.470;2023-05-07T10:03:24;2.33;;;1.10;;
38972;SDS011;25333;50.762;4.470;2023-05-07T10:05:53;2.17;;;0.75;;
38972;SDS011;25333;50.762;4.470;2023-05-07T10:08:19;2.83;;;1.73;;
38972;SDS011;25333;50.762;4.470;2023-05-07T10:10:45;4.05;;;0.93;;
38972;SDS011;25333;50.762;4.470;2023-05-07T10:13:11;2.40;;;1.10;;
38972;SDS011;25333;50.762;4.470;2023-05-07T10:15:38;3.30;;;1.48;;
38972;SDS011;25333;50.762;4.470;2023-05-07T10:18:04;2.13;;;1.25;;
38972;SDS011;25333;50.762;4.470;2023-05-07T10:20:31;3.50;;;1.58;;
38972;SDS011;25333;50.762;4.470;2023-05-07T10:22:59;4.32;;;1.98;;
38972;SDS011;25333;50.762;4.470;2023-05-07T10:25:30;2.55;;;2.00;;
38972;SDS011;25333;50.762;4.470;2023-05-07T10:27:59;4.90;;;1.80;;
38972;SDS011;25333;50.762;4.470;2023-05-07T10:33:19;3.50;;;1.60;;
38972;SDS011;25333;50.762;4.470;2023-05-07T10:35:51;2.97;;;1.30;;
38972;SDS011;25333;50.762;4.470;2023-05-07T10:38:20;2.88;;;1.67;;
38972;SDS011;25333;50.762;4.470;2023-05-07T10:40:46;3.95;;;2.10;;
38972;SDS011;25333;50.762;4.470;2023-05-07T10:43:12;5.17;;;2.13;;
38972;SDS011;25333;50.762;4.470;2023-05-07T10:45:38;3.80;;;2.10;;
38972;SDS011;25333;50.762;4.470;2023-05-07T10:48:11;4.18;;;1.90;;
38972;SDS011;25333;50.762;4.470;2023-05-07T10:50:39;5.25;;;1.90;;
38972;SDS011;25333;50.762;4.470;2023-05-07T10:55:44;2.08;;;1.42;;
38972;SDS011;25333;50.762;4.470;2023-05-07T11:01:09;2.53;;;1.42;;
38972;SDS011;25333;50.762;4.470;2023-05-07T11:03:37;1.92;;;1.10;;
38972;SDS011;25333;50.762;4.470;2023-05-07T11:06:45;1.97;;;1.00;;
38972;SDS011;25333;50.762;4.470;2023-05-07T11:15:02;3.00;;;1.40;;
38972;SDS011;25333;50.762;4.470;2023-05-07T11:17:33;5.07;;;1.67;;
38972;SDS011;25333;50.762;4.470;2023-05-07T11:20:00;3.33;;;1.77;;
38972;SDS011;25333;50.762;4.470;2023-05-07T11:24:59;3.75;;;2.10;;
38972;SDS011;25333;50.762;4.470;2023-05-07T11:27:26;3.23;;;1.73;;
38972;SDS011;25333;50.762;4.470;2023-05-07T11:29:52;2.00;;;1.23;;
38972;SDS011;25333;50.762;4.470;2023-05-07T11:32:24;2.92;;;1.60;;
38972;SDS011;25333;50.762;4.470;2023-05-07T11:34:52;2.13;;;1.10;;
38972;SDS011;25333;50.762;4.470;2023-05-07T11:37:19;3.67;;;1.60;;
38972;SDS011;25333;50.762;4.470;2023-05-07T11:39:45;2.80;;;1.60;;
38972;SDS011;25333;50.762;4.470;2023-05-07T11:42:44;3.75;;;1.35;;
38972;SDS011;25333;50.762;4.470;2023-05-07T11:45:04;4.43;;;1.70;;
38972;SDS011;25333;50.762;4.470;2023-05-07T11:47:31;2.88;;;1.30;;
38972;SDS011;25333;50.762;4.470;2023-05-07T11:49:57;3.15;;;1.33;;
38972;SDS011;25333;50.762;4.470;2023-05-07T11:52:31;4.15;;;1.60;;
38972;SDS011;25333;50.762;4.470;2023-05-07T11:54:58;2.20;;;1.30;;
38972;SDS011;25333;50.762;4.470;2023-05-07T11:57:25;3.08;;;1.40;;
38972;SDS011;25333;50.762;4.470;2023-05-07T11:59:58;2.92;;;1.27;;
38972;SDS011;25333;50.762;4.470;2023-05-07T12:02:26;3.30;;;1.80;;
38972;SDS011;25333;50.762;4.470;2023-05-07T12:04:53;3.00;;;1.83;;
38972;SDS011;25333;50.762;4.470;2023-05-07T12:07:19;3.20;;;1.60;;
38972;SDS011;25333;50.762;4.470;2023-05-07T12:09:46;3.50;;;1.83;;
38972;SDS011;25333;50.762;4.470;2023-05-07T12:12:12;2.72;;;1.30;;
38972;SDS011;25333;50.762;4.470;2023-05-07T12:14:40;3.33;;;1.58;;
38972;SDS011;25333;50.762;4.470;2023-05-07T12:17:07;2.95;;;1.85;;
38972;SDS011;25333;50.762;4.470;2023-05-07T12:19:34;2.57;;;1.50;;
38972;SDS011;25333;50.762;4.470;2023-05-07T12:22:02;3.28;;;1.98;;
38972;SDS011;25333;50.762;4.470;2023-05-07T12:24:28;4.07;;;1.90;;
38972;SDS011;25333;50.762;4.470;2023-05-07T12:27:06;3.08;;;1.67;;
38972;SDS011;25333;50.762;4.470;2023-05-07T12:29:32;3.37;;;2.10;;
38972;SDS011;25333;50.762;4.470;2023-05-07T12:31:58;2.95;;;2.20;;
38972;SDS011;25333;50.762;4.470;2023-05-07T12:34:24;5.72;;;2.17;;
38972;SDS011;25333;50.762;4.470;2023-05-07T12:36:49;3.60;;;2.58;;
38972;SDS011;25333;50.762;4.470;2023-05-07T12:39:15;3.15;;;1.92;;
38972;SDS011;25333;50.762;4.470;2023-05-07T12:41:57;2.33;;;1.58;;
38972;SDS011;25333;50.762;4.470;2023-05-07T12:44:28;3.28;;;2.30;;
38972;SDS011;25333;50.762;4.470;2023-05-07T12:46:55;4.25;;;1.80;;
38972;SDS011;25333;50.762;4.470;2023-05-07T12:49:22;4.17;;;2.27;;
38972;SDS011;25333;50.762;4.470;2023-05-07T12:51:48;3.63;;;2.58;;
38972;SDS011;25333;50.762;4.470;2023-05-07T12:54:33;4.20;;;2.38;;
38972;SDS011;25333;50.762;4.470;2023-05-07T12:57:05;3.30;;;2.88;;
38972;SDS011;25333;50.762;4.470;2023-05-07T12:59:33;3.65;;;2.67;;
38972;SDS011;25333;50.762;4.470;2023-05-07T13:02:03;5.17;;;2.90;;
38972;SDS011;25333;50.762;4.470;2023-05-07T13:04:29;7.87;;;3.20;;
38972;SDS011;25333;50.762;4.470;2023-05-07T13:06:55;5.10;;;3.45;;
38972;SDS011;25333;50.762;4.470;2023-05-07T13:09:21;4.67;;;3.47;;
38972;SDS011;25333;50.762;4.470;2023-05-07T13:11:46;4.27;;;3.73;;
38972;SDS011;25333;50.762;4.470;2023-05-07T13:14:20;6.75;;;3.97;;
38972;SDS011;25333;50.762;4.470;2023-05-07T13:16:46;5.17;;;4.07;;
38972;SDS011;25333;50.762;4.470;2023-05-07T13:19:15;5.78;;;3.85;;
38972;SDS011;25333;50.762;4.470;2023-05-07T13:21:41;6.07;;;3.47;;
38972;SDS011;25333;50.762;4.470;2023-05-07T13:24:07;5.53;;;4.30;;
38972;SDS011;25333;50.762;4.470;2023-05-07T13:26:32;5.47;;;4.47;;
38972;SDS011;25333;50.762;4.470;2023-05-07T13:28:58;7.60;;;3.93;;
38972;SDS011;25333;50.762;4.470;2023-05-07T13:31:24;7.47;;;5.25;;
38972;SDS011;25333;50.762;4.470;2023-05-07T13:33:50;7.07;;;4.25;;
38972;SDS011;25333;50.762;4.470;2023-05-07T13:36:15;5.93;;;4.97;;
38972;SDS011;25333;50.762;4.470;2023-05-07T13:38:41;5.68;;;4.63;;
38972;SDS011;25333;50.762;4.470;2023-05-07T13:41:07;5.15;;;4.32;;
38972;SDS011;25333;50.762;4.470;2023-05-07T13:43:32;5.82;;;4.47;;
38972;SDS011;25333;50.762;4.470;2023-05-07T13:45:58;5.68;;;5.10;;
38972;SDS011;25333;50.762;4.470;2023-05-07T13:48:27;5.88;;;4.68;;
38972;SDS011;25333;50.762;4.470;2023-05-07T13:50:53;6.07;;;4.63;;
38972;SDS011;25333;50.762;4.470;2023-05-07T13:53:19;5.40;;;4.53;;
38972;SDS011;25333;50.762;4.470;2023-05-07T13:55:45;5.25;;;4.30;;
38972;SDS011;25333;50.762;4.470;2023-05-07T13:58:10;5.72;;;4.75;;
38972;SDS011;25333;50.762;4.470;2023-05-07T14:00:36;5.57;;;4.70;;
38972;SDS011;25333;50.762;4.470;2023-05-07T14:03:03;5.85;;;4.22;;
38972;SDS011;25333;50.762;4.470;2023-05-07T14:05:29;4.78;;;3.85;;
38972;SDS011;25333;50.762;4.470;2023-05-07T14:07:56;6.75;;;4.90;;
38972;SDS011;25333;50.762;4.470;2023-05-07T14:10:22;7.18;;;5.15;;
38972;SDS011;25333;50.762;4.470;2023-05-07T14:12:48;5.32;;;4.57;;
38972;SDS011;25333;50.762;4.470;2023-05-07T14:15:14;6.40;;;4.63;;
38972;SDS011;25333;50.762;4.470;2023-05-07T14:17:41;5.72;;;4.65;;
38972;SDS011;25333;50.762;4.470;2023-05-07T14:20:07;7.25;;;5.22;;
38972;SDS011;25333;50.762;4.470;2023-05-07T14:22:33;5.75;;;4.60;;
38972;SDS011;25333;50.762;4.470;2023-05-07T14:24:59;7.07;;;5.10;;
38972;SDS011;25333;50.762;4.470;2023-05-07T14:27:25;6.72;;;4.97;;
38972;SDS011;25333;50.762;4.470;2023-05-07T14:29:50;6.97;;;4.80;;
38972;SDS011;25333;50.762;4.470;2023-05-07T14:32:19;6.50;;;4.83;;
38972;SDS011;25333;50.762;4.470;2023-05-07T14:34:46;6.80;;;4.88;;
38972;SDS011;25333;50.762;4.470;2023-05-07T14:37:12;6.60;;;5.25;;
38972;SDS011;25333;50.762;4.470;2023-05-07T14:39:38;6.57;;;5.38;;
38972;SDS011;25333;50.762;4.470;2023-05-07T14:42:04;6.67;;;5.03;;
38972;SDS011;25333;50.762;4.470;2023-05-07T14:44:30;7.38;;;6.13;;
38972;SDS011;25333;50.762;4.470;2023-05-07T14:46:56;9.05;;;6.03;;
38972;SDS011;25333;50.762;4.470;2023-05-07T14:49:22;6.97;;;5.50;;
38972;SDS011;25333;50.762;4.470;2023-05-07T14:51:47;6.95;;;5.97;;
38972;SDS011;25333;50.762;4.470;2023-05-07T14:54:13;8.45;;;6.22;;
38972;SDS011;25333;50.762;4.470;2023-05-07T14:56:39;11.20;;;6.10;;
38972;SDS011;25333;50.762;4.470;2023-05-07T14:59:06;6.70;;;5.28;;
38972;SDS011;25333;50.762;4.470;2023-05-07T15:01:34;8.10;;;6.03;;
38972;SDS011;25333;50.762;4.470;2023-05-07T15:04:00;6.60;;;5.55;;
38972;SDS011;25333;50.762;4.470;2023-05-07T15:06:26;6.40;;;5.17;;
38972;SDS011;25333;50.762;4.470;2023-05-07T15:08:51;6.57;;;4.60;;